»·PEaware :: N45XS KSBP-KAVX

N45XS :: KSBP-KAVX

FLIGHT INFORMATION

Flight Status: Arrived
Operator: Privately registered:
United States
More flights under this callsign
Pilot: Robby P. (27385)
Aircraft: BEECH AIRCRAFT BARON
(BE58)
More flights by this aircraft type
Origin: KSBP San Luis Co Regl
United States
Destination: KAVX Catalina
United States
More flights between these airports :: More routes between these airports
Route: +
File this flight plan on PilotEdge
Remarks:
Altitude:
(Current/Filed)
7,500ft
Speed:
(Current/Filed)
160kts
Departed: 13-Feb-20 04:05 PM
Arrived: 13-Feb-20 05:09 PM
Distance/Time
Traveled:
156nm/1:04
Distance/Time
To Go:
Arrived

Flight Plot

Page will automatically refresh every two minutes.


Map Options




Map Legend


Flown Route
Filed Route
Departure Airport
Arrival Airport
Navaid (VOR, NDB)
Fix

Horizontal Profiles

Position Reports

Time Latitude Longitude Heading Altitude Ground
Speed
13-Feb-20 16:03 35.215051 -120.663998 126 1264ft 172kts
13-Feb-20 16:04 35.179383 -120.632263 188 1869ft 160kts
13-Feb-20 16:05 35.138226 -120.638297 197 2838ft 143kts
13-Feb-20 16:06 35.099977 -120.649848 197 3654ft 140kts
13-Feb-20 16:07 35.062556 -120.661281 197 4417ft 137kts
13-Feb-20 16:08 35.025673 -120.672750 197 5107ft 136kts
13-Feb-20 16:09 34.988539 -120.685015 197 5542ft 148kts
13-Feb-20 16:10 34.945972 -120.700098 197 5508ft 166kts
13-Feb-20 16:11 34.899974 -120.711952 190 5454ft 171kts
13-Feb-20 16:12 34.853244 -120.722118 190 5460ft 171kts
13-Feb-20 16:13 34.806269 -120.732406 190 5472ft 171kts
13-Feb-20 16:14 34.765497 -120.730105 171 6356ft 136kts
13-Feb-20 16:15 34.729021 -120.723198 171 7021ft 130kts
13-Feb-20 16:16 34.693328 -120.716587 171 7537ft 135kts
13-Feb-20 16:17 34.652590 -120.709090 171 7538ft 159kts
13-Feb-20 16:18 34.607774 -120.700818 171 7505ft 166kts
13-Feb-20 16:19 34.562844 -120.687127 163 7489ft 167kts
13-Feb-20 16:20 34.518505 -120.670875 163 7491ft 166kts
13-Feb-20 16:21 34.474305 -120.654663 163 7493ft 166kts
13-Feb-20 16:22 34.430131 -120.638450 163 7493ft 166kts
13-Feb-20 16:23 34.389118 -120.613229 150 7493ft 166kts
13-Feb-20 16:24 34.349229 -120.585161 150 7490ft 166kts
13-Feb-20 16:25 34.309411 -120.557092 150 7491ft 165kts
13-Feb-20 16:26 34.269781 -120.529125 150 7492ft 165kts
13-Feb-20 16:27 34.238574 -120.491838 111 7558ft 162kts
13-Feb-20 16:28 34.220524 -120.440202 115 7501ft 166kts
13-Feb-20 16:29 34.200891 -120.389251 115 7501ft 166kts
13-Feb-20 16:30 34.181108 -120.338672 116 7498ft 167kts
13-Feb-20 16:31 34.161119 -120.287741 116 7493ft 167kts
13-Feb-20 16:32 34.141071 -120.236747 116 7492ft 167kts
13-Feb-20 16:33 34.121071 -120.185943 116 7496ft 167kts
13-Feb-20 16:34 34.101089 -120.135273 116 7500ft 167kts
13-Feb-20 16:35 34.081054 -120.084543 116 7502ft 167kts
13-Feb-20 16:36 34.061048 -120.033962 116 7502ft 167kts
13-Feb-20 16:37 34.041002 -119.983366 116 7502ft 167kts
13-Feb-20 16:38 34.020993 -119.932916 116 7503ft 167kts
13-Feb-20 16:39 34.000877 -119.882291 116 7502ft 167kts
13-Feb-20 16:40 33.980449 -119.830992 114 7503ft 170kts
13-Feb-20 16:41 33.959829 -119.779220 115 7498ft 172kts
13-Feb-20 16:42 33.939063 -119.727191 115 7493ft 172kts
13-Feb-20 16:43 33.918282 -119.675207 114 7490ft 172kts
13-Feb-20 16:44 33.897377 -119.622995 114 7489ft 172kts
13-Feb-20 16:45 33.876234 -119.570315 115 7486ft 172kts
13-Feb-20 16:46 33.855342 -119.518307 115 7478ft 172kts
13-Feb-20 16:47 33.834527 -119.466558 115 7475ft 172kts
13-Feb-20 16:48 33.813681 -119.414815 115 7478ft 171kts
13-Feb-20 16:49 33.792792 -119.363041 115 7480ft 172kts
13-Feb-20 16:51 33.772012 -119.311612 115 7481ft 172kts
13-Feb-20 16:52 33.750950 -119.259569 115 7486ft 173kts
13-Feb-20 16:53 33.729889 -119.207612 115 7484ft 173kts
13-Feb-20 16:54 33.708754 -119.155546 115 7482ft 173kts
13-Feb-20 16:55 33.687254 -119.102673 115 7164ft 189kts
13-Feb-20 16:56 33.663516 -119.044386 115 6414ft 201kts
13-Feb-20 16:57 33.638397 -118.982836 115 5451ft 208kts
13-Feb-20 16:58 33.614740 -118.924896 115 5474ft 182kts
13-Feb-20 16:59 33.592824 -118.871168 117 5525ft 176kts
13-Feb-20 17:00 33.571238 -118.818658 117 5514ft 174kts
13-Feb-20 17:01 33.549794 -118.766436 117 5517ft 174kts
13-Feb-20 17:02 33.528410 -118.714412 117 5471ft 172kts
13-Feb-20 17:03 33.507201 -118.662935 117 5521ft 173kts
13-Feb-20 17:04 33.485742 -118.610902 117 5517ft 175kts
13-Feb-20 17:05 33.464186 -118.558715 117 5517ft 174kts
13-Feb-20 17:06 33.440338 -118.505855 129 5027ft 193kts
13-Feb-20 17:07 33.404956 -118.463322 141 3539ft 150kts
13-Feb-20 17:08 33.399807 -118.424503 54 1773ft 117kts
13-Feb-20 17:09 33.403690 -118.415238 240 1605ft 0kts

Navigation Log

Ident Type
Flight plan parsing failed, navigation log unavailable